Pagina principale
METAR-TAF:

METAR-TAF

Aeroporti :

Aeroporto di Brescia-Ghedi

Brescia Ghedi, Italia

latitudine: 45-25N, longitudine: 010-17E, altezza: 102 m

Osservazione

Il bollettino è stato emesso 29 minuti fa, alle 20:55 UTC
Vento 4 kt da nord-est
Temperature 24°C
Umidità 100%
Pressione 1013 hPa
Visibilità 10 km o più
nessuna nube inferiore a 1500 m e nessun cumulonembo

METAR: LIPL 232055Z 04004KT CAVOK 24/24 Q1013 RMK SKC VIS MIN 9999 WIND THR31 03005KT WIND THR13 02003KT BLU

Ora: 23:24 (21:24 UTC)

Previsione

Il bollettino è stato emesso 1 ora e 24 minuti fa, alle 20:00 UTC
Previsione valida dal 23 alle 21 UTC al 24 alle 06 UTC
Vento 5 kt da est/nord-est
Visibilità 10 km o più
Poco nuvoloso ad un'altezza di 3000 ft

TAF: LIPL 232000Z 2321/2406 06005KT 9999 FEW030

Osservazioni e previsioni meteorologiche di più di 4000 aeroporti (messaggi METAR e TAF).

Le stazioni disponibili sono rappresentate dai dischi gialli e rossi sulla carta.

Puntare il mouse per vedere il nome della stazione.

Clicca sopra per visualizzare le osservazioni e previsioni meteorologiche.

Per cambiare la mappa : fare clic sui pulsanti verdi con una croce nera per ingrandire, il pulsante verde con un trattino per diminuire, o sulla freccia verde per le mappe adiacenti.


METAR-TAF: